Time;durP1;ratioP1;P1;durP2;ratioP2;P2;SDS_P1;SDS_P2;PMS_P1;PMS_P2;Temp;Humidity;BMP_temperature;BMP_pressure;BME280_temperature;BME280_humidity;BME280_pressure;Samples;Min_cycle;Max_cycle;Signal;HPM_P1;HPM_P2
2023/02/09 00:01:46;;;;;;;8.05;5.75;;;3.70;99.90;;;;;;4881627;29;20230;-76
2023/02/09 00:04:14;;;;;;;8.40;5.75;;;3.70;99.90;;;;;;4880253;29;20170;-76
2023/02/09 00:06:42;;;;;;;7.60;5.32;;;3.70;99.90;;;;;;4864622;29;20684;-76
2023/02/09 00:09:14;;;;;;;8.18;5.05;;;3.70;99.80;;;;;;4880339;29;20206;-76
2023/02/09 00:14:26;;;;;;;9.02;5.68;;;3.70;99.70;;;;;;4864757;29;20218;-76
2023/02/09 00:16:53;;;;;;;7.97;5.57;;;3.70;99.70;;;;;;4864725;29;20206;-76
2023/02/09 00:19:20;;;;;;;10.23;5.13;;;3.60;99.60;;;;;;4880113;29;20174;-76
2023/02/09 00:21:48;;;;;;;9.65;6.10;;;3.70;99.70;;;;;;4864484;29;20163;-76
2023/02/09 00:24:16;;;;;;;8.90;5.80;;;3.70;99.70;;;;;;4879909;29;20171;-76
2023/02/09 00:26:43;;;;;;;8.30;5.53;;;3.70;99.70;;;;;;4879761;29;20222;-76
2023/02/09 00:29:12;;;;;;;8.75;6.03;;;3.70;99.70;;;;;;4864490;29;20178;-75
2023/02/09 00:31:40;;;;;;;7.22;5.38;;;3.70;99.70;;;;;;4864328;29;20178;-76
2023/02/09 00:34:11;;;;;;;9.80;6.30;;;3.70;99.70;;;;;;4864406;29;20182;-76
2023/02/09 00:36:37;;;;;;;8.30;6.22;;;3.60;99.50;;;;;;4848759;29;20246;-76
2023/02/09 00:39:03;;;;;;;10.10;5.93;;;3.60;99.60;;;;;;4864409;29;20201;-76
2023/02/09 00:42:14;;;;;;;10.13;7.27;;;3.60;99.60;;;;;;4879413;29;20245;-76
2023/02/09 00:44:18;;;;;;;8.63;6.40;;;3.60;99.60;;;;;;4873832;29;20430;-76
2023/02/09 00:46:44;;;;;;;7.80;5.70;;;3.60;99.50;;;;;;4863885;29;20229;-76
2023/02/09 00:49:12;;;;;;;9.13;6.30;;;3.60;99.50;;;;;;4881042;29;20167;-76
2023/02/09 00:51:38;;;;;;;9.20;6.20;;;3.60;99.60;;;;;;4879521;29;20969;-76
2023/02/09 00:54:09;;;;;;;9.70;6.60;;;3.60;99.60;;;;;;4878581;29;20254;-76
2023/02/09 00:56:42;;;;;;;8.30;6.00;;;3.60;99.60;;;;;;4863929;29;20558;-76
2023/02/09 00:59:11;;;;;;;9.07;5.60;;;3.60;99.70;;;;;;4864120;29;20648;-76
2023/02/09 01:01:39;;;;;;;9.43;6.57;;;3.60;99.70;;;;;;4880519;29;20178;-76
2023/02/09 01:04:10;;;;;;;16.23;6.03;;;3.60;99.70;;;;;;4880523;29;20625;-76
2023/02/09 01:06:36;;;;;;;7.32;5.20;;;3.60;99.80;;;;;;4848190;29;20475;-76
2023/02/09 01:09:04;;;;;;;9.75;5.72;;;3.60;99.80;;;;;;4864293;29;20629;-76
2023/02/09 01:11:31;;;;;;;10.05;6.78;;;3.60;99.60;;;;;;4879292;29;20197;-76
2023/02/09 01:13:59;;;;;;;10.35;6.50;;;3.60;99.70;;;;;;4880270;29;20533;-76
2023/02/09 01:16:30;;;;;;;8.98;6.03;;;3.60;99.80;;;;;;4863564;29;20209;-76
2023/02/09 01:18:59;;;;;;;9.18;5.80;;;3.60;99.80;;;;;;4863727;29;20175;-76
2023/02/09 01:21:27;;;;;;;9.38;6.00;;;3.60;99.80;;;;;;4848567;29;20202;-76
2023/02/09 01:23:56;;;;;;;9.63;6.93;;;3.60;99.80;;;;;;4879447;29;20178;-76
2023/02/09 01:26:27;;;;;;;9.95;6.25;;;3.60;99.80;;;;;;4848215;29;20224;-76
2023/02/09 01:28:58;;;;;;;9.35;6.15;;;3.60;99.80;;;;;;4878809;29;20166;-76
2023/02/09 01:31:31;;;;;;;10.38;6.35;;;3.60;99.80;;;;;;4863509;29;20214;-76
2023/02/09 01:34:01;;;;;;;10.20;6.30;;;3.60;99.80;;;;;;4863392;29;20614;-76
2023/02/09 01:36:32;;;;;;;8.45;5.43;;;3.60;99.80;;;;;;4878661;29;20328;-76
2023/02/09 01:39:05;;;;;;;9.20;6.32;;;3.60;99.80;;;;;;4863440;29;20193;-76
2023/02/09 01:41:33;;;;;;;13.23;7.07;;;3.50;99.70;;;;;;4879830;29;20194;-76
2023/02/09 01:44:05;;;;;;;10.35;6.55;;;3.50;99.60;;;;;;4878794;29;20179;-76
2023/02/09 01:46:35;;;;;;;9.02;6.32;;;3.50;99.60;;;;;;4879555;29;20693;-76
2023/02/09 01:49:35;;;;;;;9.05;6.50;;;3.50;99.60;;;;;;4878650;29;20178;-76
2023/02/09 01:52:08;;;;;;;10.25;6.40;;;3.50;99.80;;;;;;4878207;29;20588;-75
2023/02/09 01:54:37;;;;;;;12.40;6.30;;;3.50;99.80;;;;;;4878396;29;20189;-75
2023/02/09 01:57:17;;;;;;;8.68;6.72;;;3.50;99.80;;;;;;4863280;29;20206;-75
2023/02/09 01:59:57;;;;;;;10.43;7.65;;;3.50;99.80;;;;;;4863055;29;20238;-75
2023/02/09 02:02:25;;;;;;;9.30;6.45;;;3.50;99.80;;;;;;4878510;29;20186;-75
2023/02/09 02:04:52;;;;;;;10.25;7.13;;;3.50;99.90;;;;;;4862731;29;20560;-75
2023/02/09 02:07:50;;;;;;;8.60;5.60;;;3.50;99.60;;;;;;4862896;29;20253;-75
2023/02/09 02:10:23;;;;;;;14.18;7.40;;;3.50;99.70;;;;;;4871316;29;20198;-75
2023/02/09 02:12:50;;;;;;;9.07;6.40;;;3.50;99.60;;;;;;4863070;29;20178;-75
2023/02/09 02:15:18;;;;;;;9.35;6.43;;;3.50;99.70;;;;;;4878265;29;20170;-75
2023/02/09 02:18:11;;;;;;;12.50;7.07;;;3.50;99.70;;;;;;4879688;29;20210;-75
2023/02/09 02:20:40;;;;;;;8.68;6.88;;;3.50;99.80;;;;;;4878513;29;20167;-75
2023/02/09 02:23:34;;;;;;;10.65;6.65;;;3.50;99.80;;;;;;4862890;29;20171;-75
2023/02/09 02:26:22;;;;;;;8.95;6.45;;;3.50;99.80;;;;;;4862392;29;20272;-75
2023/02/09 02:29:10;;;;;;;8.75;6.65;;;3.50;99.80;;;;;;4862673;29;20187;-75
2023/02/09 02:32:01;;;;;;;10.88;6.85;;;3.50;99.80;;;;;;4878297;29;20182;-75
2023/02/09 02:35:13;;;;;;;10.27;6.97;;;3.50;99.90;;;;;;4863097;29;20202;-75
2023/02/09 02:38:05;;;;;;;11.50;6.32;;;3.50;99.90;;;;;;4879066;29;20264;-75
2023/02/09 02:40:40;;;;;;;10.90;6.75;;;3.50;99.90;;;;;;4852501;29;20209;-75
2023/02/09 02:43:13;;;;;;;10.93;6.78;;;3.50;99.90;;;;;;4893789;29;20225;-75
2023/02/09 02:45:42;;;;;;;10.30;6.97;;;3.40;99.90;;;;;;4879250;29;20210;-75
2023/02/09 02:48:47;;;;;;;10.10;7.28;;;3.50;99.90;;;;;;4879233;29;20171;-75
2023/02/09 02:51:29;;;;;;;10.45;6.70;;;3.50;99.90;;;;;;4878035;29;20511;-76
2023/02/09 02:54:01;;;;;;;12.40;6.50;;;3.40;99.90;;;;;;4877943;29;20202;-76
2023/02/09 02:56:32;;;;;;;9.10;6.50;;;3.40;99.90;;;;;;4878020;29;20211;-75
2023/02/09 02:59:11;;;;;;;9.35;6.55;;;3.50;99.90;;;;;;4859445;29;20179;-75
2023/02/09 03:01:46;;;;;;;10.07;6.82;;;3.40;99.90;;;;;;4860510;29;20171;-75
2023/02/09 03:04:16;;;;;;;12.18;7.68;;;3.40;99.90;;;;;;4859621;29;20175;-75
2023/02/09 03:06:42;;;;;;;9.38;6.03;;;3.40;99.90;;;;;;4859165;29;20222;-75
2023/02/09 03:09:08;;;;;;;10.30;7.10;;;3.40;99.90;;;;;;4859452;29;20172;-75
2023/02/09 03:11:45;;;;;;;12.18;6.80;;;3.40;99.90;;;;;;4859465;29;20240;-75
2023/02/09 03:14:37;;;;;;;12.48;7.40;;;3.40;99.90;;;;;;4860651;29;20203;-75
2023/02/09 03:21:24;;;;;;;10.63;7.00;;;3.40;99.90;;;;;;4881448;29;20321;-75
2023/02/09 03:24:35;;;;;;;11.80;7.65;;;3.40;99.90;;;;;;4865673;29;20189;-75
2023/02/09 03:27:11;;;;;;;10.13;6.70;;;3.40;99.90;;;;;;4866929;29;20606;-75
2023/02/09 03:29:40;;;;;;;9.10;6.65;;;3.40;99.90;;;;;;4880937;29;20265;-75
2023/02/09 03:32:09;;;;;;;11.48;6.97;;;3.40;99.90;;;;;;4865531;29;20206;-76
2023/02/09 03:34:39;;;;;;;10.70;7.43;;;3.40;99.90;;;;;;4865535;29;20214;-75
2023/02/09 03:37:10;;;;;;;13.02;7.68;;;3.40;99.90;;;;;;4865691;29;20237;-75
2023/02/09 03:39:36;;;;;;;16.23;6.90;;;3.40;99.90;;;;;;4880979;29;20202;-75
2023/02/09 03:42:02;;;;;;;10.77;7.25;;;3.40;99.90;;;;;;4865489;29;20187;-75
2023/02/09 03:44:28;;;;;;;12.60;7.30;;;3.40;99.90;;;;;;4880873;29;20195;-75
2023/02/09 03:47:08;;;;;;;10.80;6.85;;;3.40;99.90;;;;;;4880371;29;20497;-75
2023/02/09 03:49:38;;;;;;;11.27;6.88;;;3.40;99.90;;;;;;4880700;29;20559;-75
2023/02/09 03:52:09;;;;;;;12.82;7.68;;;3.40;99.90;;;;;;4880720;29;20266;-75
2023/02/09 03:54:36;;;;;;;11.02;7.10;;;3.40;99.90;;;;;;4865086;29;20207;-76
2023/02/09 03:57:05;;;;;;;13.30;7.35;;;3.40;99.90;;;;;;4880426;29;20607;-75
2023/02/09 03:59:36;;;;;;;11.00;6.40;;;3.40;99.90;;;;;;4881584;29;20170;-75
2023/02/09 04:02:07;;;;;;;10.43;7.03;;;3.40;99.90;;;;;;4880612;29;20181;-75
2023/02/09 04:04:36;;;;;;;11.88;6.57;;;3.40;99.90;;;;;;4864965;29;20289;-75
2023/02/09 04:07:03;;;;;;;9.77;7.05;;;3.40;99.90;;;;;;4864616;29;20370;-75
2023/02/09 04:09:33;;;;;;;12.55;8.15;;;3.40;99.90;;;;;;4880392;29;20181;-75
2023/02/09 04:12:02;;;;;;;10.82;7.22;;;3.40;99.90;;;;;;4880332;29;20162;-75
2023/02/09 04:14:31;;;;;;;11.45;7.20;;;3.30;99.90;;;;;;4880158;29;20210;-75
2023/02/09 04:16:59;;;;;;;11.90;7.57;;;3.30;99.90;;;;;;4881440;29;20216;-75
2023/02/09 04:19:26;;;;;;;11.33;7.03;;;3.30;99.90;;;;;;4895674;29;20175;-75
2023/02/09 04:21:53;;;;;;;14.70;8.10;;;3.30;99.90;;;;;;4849132;29;20469;-75
2023/02/09 04:24:28;;;;;;;16.13;8.23;;;3.30;99.90;;;;;;4881238;29;20167;-75
2023/02/09 04:27:02;;;;;;;10.43;7.15;;;3.30;99.90;;;;;;4864164;29;20229;-75
2023/02/09 04:29:32;;;;;;;12.15;8.05;;;3.30;99.90;;;;;;4880199;29;20632;-75
2023/02/09 04:31:58;;;;;;;13.27;7.60;;;3.30;99.90;;;;;;4895214;29;20206;-75
2023/02/09 04:34:25;;;;;;;12.93;8.30;;;3.30;99.90;;;;;;4895450;29;20605;-75
2023/02/09 04:36:54;;;;;;;11.93;7.65;;;3.30;99.90;;;;;;4864340;29;20553;-75
2023/02/09 04:39:20;;;;;;;13.68;8.23;;;3.30;99.90;;;;;;4879970;29;20217;-75
2023/02/09 04:41:48;;;;;;;11.63;7.88;;;3.30;99.90;;;;;;4879633;29;20202;-75
2023/02/09 04:44:14;;;;;;;11.85;8.00;;;3.30;99.90;;;;;;4864407;29;20201;-75
2023/02/09 04:46:40;;;;;;;11.77;8.17;;;3.30;99.90;;;;;;4880678;29;20657;-75
2023/02/09 04:49:11;;;;;;;13.70;7.43;;;3.30;99.90;;;;;;4879319;29;20800;-76
2023/02/09 04:51:39;;;;;;;11.18;7.43;;;3.30;99.90;;;;;;4880680;29;20167;-75
2023/02/09 04:54:08;;;;;;;12.18;7.55;;;3.30;99.90;;;;;;4880633;29;20180;-75
2023/02/09 04:56:41;;;;;;;10.85;7.65;;;3.30;99.90;;;;;;4880452;29;20703;-75
2023/02/09 05:01:57;;;;;;;11.27;7.35;;;3.30;99.90;;;;;;4863861;29;20250;-75
2023/02/09 05:04:26;;;;;;;12.83;8.17;;;3.20;99.90;;;;;;4879278;29;20569;-75
2023/02/09 05:06:52;;;;;;;11.88;7.65;;;3.20;99.90;;;;;;4880186;29;20479;-75
2023/02/09 05:09:18;;;;;;;13.20;7.93;;;3.20;99.90;;;;;;4853819;29;20250;-75
2023/02/09 05:11:46;;;;;;;10.93;7.53;;;3.20;99.90;;;;;;4874377;29;21017;-75
2023/02/09 05:14:12;;;;;;;14.35;8.45;;;3.20;99.90;;;;;;4857305;29;20181;-75
2023/02/09 05:16:43;;;;;;;12.57;7.70;;;3.20;99.90;;;;;;4871294;29;20230;-75
2023/02/09 05:19:09;;;;;;;12.73;8.15;;;3.20;99.80;;;;;;4868324;29;20186;-76
2023/02/09 05:21:38;;;;;;;13.70;9.57;;;3.20;99.80;;;;;;4879059;29;20207;-78
2023/02/09 05:24:07;;;;;;;12.63;7.72;;;3.20;99.80;;;;;;4866331;29;20322;-77
2023/02/09 05:26:33;;;;;;;13.20;8.93;;;3.20;99.70;;;;;;4861856;29;20256;-74
2023/02/09 05:29:01;;;;;;;12.60;8.25;;;3.20;99.70;;;;;;4875706;29;20206;-75
2023/02/09 05:31:27;;;;;;;14.32;7.75;;;3.20;99.70;;;;;;4852372;29;20186;-75
2023/02/09 05:33:53;;;;;;;10.50;7.93;;;3.20;99.80;;;;;;4865754;29;20674;-75
2023/02/09 05:36:24;;;;;;;11.80;8.23;;;3.20;99.80;;;;;;4881899;29;20482;-74
2023/02/09 05:38:50;;;;;;;14.90;10.02;;;3.20;99.80;;;;;;4912656;29;20484;-74
2023/02/09 05:42:14;;;;;;;12.53;8.40;;;3.20;99.80;;;;;;4881620;29;20174;-74
2023/02/09 05:44:07;;;;;;;13.40;8.63;;;3.20;99.80;;;;;;4897241;29;20442;-74
2023/02/09 05:46:33;;;;;;;12.10;8.68;;;3.20;99.80;;;;;;4897079;29;20260;-74
2023/02/09 05:48:59;;;;;;;17.00;8.33;;;3.20;99.80;;;;;;4897119;29;20640;-74
2023/02/09 05:51:27;;;;;;;14.27;9.32;;;3.20;99.70;;;;;;4898485;29;20411;-74
2023/02/09 05:53:56;;;;;;;17.37;8.77;;;3.20;99.80;;;;;;4897422;29;20229;-74
2023/02/09 05:56:22;;;;;;;12.25;8.05;;;3.20;99.70;;;;;;4881462;29;20539;-74
2023/02/09 05:58:50;;;;;;;12.57;8.53;;;3.20;99.70;;;;;;4898221;29;20292;-74
2023/02/09 06:01:16;;;;;;;11.77;8.70;;;3.20;99.80;;;;;;4880781;29;20438;-74
2023/02/09 06:03:42;;;;;;;15.47;8.70;;;3.20;99.80;;;;;;4881680;29;20189;-74
2023/02/09 06:06:11;;;;;;;12.63;8.17;;;3.10;99.70;;;;;;4881529;29;20466;-73
2023/02/09 06:08:37;;;;;;;15.95;9.00;;;3.10;99.70;;;;;;4881608;29;20815;-74
2023/02/09 06:11:04;;;;;;;14.50;8.37;;;3.10;99.70;;;;;;4897140;29;20182;-74
2023/02/09 06:13:32;;;;;;;15.75;8.98;;;3.10;99.70;;;;;;4896955;29;20406;-74
2023/02/09 06:16:00;;;;;;;16.38;9.57;;;3.10;99.70;;;;;;4896965;29;20688;-74
2023/02/09 06:18:26;;;;;;;12.90;9.00;;;3.10;99.70;;;;;;4881560;29;20193;-74
2023/02/09 06:20:55;;;;;;;13.50;8.60;;;3.10;99.70;;;;;;4896001;29;20185;-74
2023/02/09 06:23:23;;;;;;;18.05;9.52;;;3.10;99.70;;;;;;4881351;29;20473;-73
2023/02/09 06:25:52;;;;;;;14.52;9.18;;;3.10;99.70;;;;;;4896725;29;20213;-75
2023/02/09 06:28:19;;;;;;;12.82;8.25;;;3.10;99.70;;;;;;4881437;29;20551;-74
2023/02/09 06:30:52;;;;;;;12.50;8.70;;;3.10;99.80;;;;;;4912278;29;20166;-75
2023/02/09 06:33:19;;;;;;;14.63;9.30;;;3.10;99.90;;;;;;4896445;29;20204;-74
2023/02/09 06:35:45;;;;;;;13.20;8.50;;;3.10;99.80;;;;;;4896114;29;20264;-74
2023/02/09 06:38:12;;;;;;;13.35;8.40;;;3.10;99.70;;;;;;4897641;29;20684;-72
2023/02/09 06:40:40;;;;;;;14.98;9.10;;;3.10;99.70;;;;;;4881313;29;20194;-74
2023/02/09 06:43:10;;;;;;;12.15;8.50;;;3.10;99.80;;;;;;4867900;29;20620;-74
2023/02/09 06:45:39;;;;;;;15.30;9.18;;;3.10;99.80;;;;;;4862736;29;20222;-74
2023/02/09 06:48:07;;;;;;;13.95;9.20;;;3.10;99.80;;;;;;4862476;29;20198;-73
2023/02/09 06:50:37;;;;;;;17.85;10.35;;;3.10;99.80;;;;;;4877868;29;20205;-74
2023/02/09 06:53:05;;;;;;;17.08;10.13;;;3.10;99.80;;;;;;4864718;29;20244;-74
2023/02/09 06:55:32;;;;;;;13.23;8.60;;;3.10;99.90;;;;;;4866091;29;20555;-74
2023/02/09 06:57:58;;;;;;;13.57;8.60;;;3.10;99.90;;;;;;4881324;29;20282;-74
2023/02/09 07:00:24;;;;;;;12.10;8.40;;;3.10;99.80;;;;;;4882536;29;20608;-74
2023/02/09 07:02:51;;;;;;;12.40;8.82;;;3.10;99.90;;;;;;4881265;29;20261;-74
2023/02/09 07:05:18;;;;;;;16.63;9.95;;;3.00;99.80;;;;;;4881965;29;20218;-74
2023/02/09 07:07:45;;;;;;;14.63;9.13;;;3.00;99.80;;;;;;4882179;29;20163;-74
2023/02/09 07:10:13;;;;;;;14.45;9.30;;;3.00;99.80;;;;;;4882431;29;20170;-74
2023/02/09 07:12:45;;;;;;;16.30;10.50;;;3.00;99.90;;;;;;4882227;29;20206;-74
2023/02/09 07:15:12;;;;;;;11.68;8.75;;;3.00;99.90;;;;;;4888788;29;20193;-74
2023/02/09 07:17:39;;;;;;;13.75;9.32;;;3.00;99.90;;;;;;4899777;29;20544;-74
2023/02/09 07:20:05;;;;;;;18.60;10.40;;;3.00;99.90;;;;;;4884361;29;20618;-74
2023/02/09 07:22:34;;;;;;;14.13;10.23;;;3.00;99.90;;;;;;4899632;29;20542;-74
2023/02/09 07:25:00;;;;;;;14.68;9.18;;;3.00;99.90;;;;;;4900512;29;20548;-74
2023/02/09 07:27:28;;;;;;;16.05;9.63;;;3.00;99.90;;;;;;4900778;29;20672;-74
2023/02/09 07:29:54;;;;;;;15.27;8.75;;;3.00;99.90;;;;;;4900596;29;20193;-74
2023/02/09 07:32:23;;;;;;;15.15;9.20;;;3.00;99.70;;;;;;4900434;29;20192;-74
2023/02/09 07:34:49;;;;;;;15.00;8.60;;;3.00;99.70;;;;;;4883018;29;20162;-73
2023/02/09 07:37:15;;;;;;;17.80;10.38;;;3.00;99.80;;;;;;4883455;29;20212;-74
2023/02/09 07:39:41;;;;;;;15.75;9.88;;;3.00;99.80;;;;;;4899358;29;20669;-74
2023/02/09 07:42:07;;;;;;;15.93;9.15;;;3.00;99.80;;;;;;4883647;29;20209;-73
2023/02/09 07:44:47;;;;;;;15.70;10.23;;;3.00;99.80;;;;;;4898892;29;20196;-74
2023/02/09 07:47:14;;;;;;;13.98;9.55;;;3.00;99.70;;;;;;4865098;29;20234;-74
2023/02/09 07:49:42;;;;;;;14.40;8.73;;;3.00;99.70;;;;;;4871015;29;20224;-73
2023/02/09 07:52:08;;;;;;;17.92;9.82;;;3.00;99.80;;;;;;4861608;29;20701;-76
2023/02/09 07:54:34;;;;;;;14.73;9.30;;;3.00;99.80;;;;;;4861621;29;20258;-74
2023/02/09 07:57:00;;;;;;;14.32;9.63;;;3.00;99.80;;;;;;4846356;29;20207;-74
2023/02/09 07:59:26;;;;;;;13.57;8.73;;;3.00;99.70;;;;;;4862929;29;20223;-74
2023/02/09 08:01:52;;;;;;;14.98;9.90;;;3.00;99.70;;;;;;4877217;29;20447;-74
2023/02/09 08:04:21;;;;;;;14.50;9.27;;;3.00;99.70;;;;;;4846148;29;20198;-74
2023/02/09 08:06:47;;;;;;;14.32;9.02;;;3.00;99.70;;;;;;4830866;29;20218;-75
2023/02/09 08:09:16;;;;;;;14.10;9.23;;;3.00;99.70;;;;;;4831362;29;20183;-74
2023/02/09 08:11:59;;;;;;;12.88;9.80;;;3.00;99.70;;;;;;4876966;29;20171;-74
2023/02/09 08:14:35;;;;;;;14.77;9.75;;;2.90;99.60;;;;;;4861676;29;20186;-75
2023/02/09 08:17:19;;;;;;;16.25;10.70;;;2.90;99.60;;;;;;4846162;29;20565;-74
2023/02/09 08:20:08;;;;;;;19.50;9.85;;;2.90;99.60;;;;;;4861695;29;20201;-75
2023/02/09 08:22:40;;;;;;;13.63;9.18;;;2.90;99.60;;;;;;4862417;29;20207;-76
2023/02/09 08:25:09;;;;;;;15.20;9.65;;;2.90;99.50;;;;;;4873729;29;20187;-75
2023/02/09 08:27:38;;;;;;;16.60;10.90;;;2.90;99.50;;;;;;4857495;29;20203;-74
2023/02/09 08:30:05;;;;;;;18.15;9.68;;;2.90;99.40;;;;;;4858697;29;20248;-73
2023/02/09 08:32:31;;;;;;;16.63;10.45;;;2.90;99.40;;;;;;4859969;29;20211;-73
2023/02/09 08:34:57;;;;;;;14.35;9.63;;;2.90;99.40;;;;;;4860431;29;20172;-73
2023/02/09 08:37:25;;;;;;;17.40;11.57;;;2.90;99.50;;;;;;4859932;29;20206;-73
2023/02/09 08:39:53;;;;;;;15.55;10.63;;;2.90;99.80;;;;;;4874405;29;20633;-73
2023/02/09 08:42:25;;;;;;;15.90;9.80;;;2.90;99.40;;;;;;4860705;29;20167;-73
2023/02/09 08:44:53;;;;;;;19.63;9.43;;;2.90;99.60;;;;;;4860948;29;20254;-73
2023/02/09 08:47:19;;;;;;;16.00;10.35;;;2.90;99.60;;;;;;4875148;29;20199;-73
2023/02/09 08:49:45;;;;;;;17.20;10.52;;;2.90;99.50;;;;;;4883580;29;20208;-73
2023/02/09 08:52:11;;;;;;;17.93;9.40;;;2.90;99.60;;;;;;4896849;29;20165;-73
2023/02/09 08:54:39;;;;;;;16.17;10.75;;;2.90;99.70;;;;;;4896917;29;20509;-72
2023/02/09 08:57:06;;;;;;;16.80;11.15;;;2.90;99.90;;;;;;4881485;29;20225;-73
2023/02/09 08:59:36;;;;;;;17.40;11.02;;;3.00;99.60;;;;;;4895217;29;20166;-73
2023/02/09 09:02:05;;;;;;;14.48;9.23;;;2.90;99.40;;;;;;4878218;29;20171;-73
2023/02/09 09:04:31;;;;;;;18.20;11.13;;;2.90;99.50;;;;;;4862367;29;20237;-73
2023/02/09 09:06:57;;;;;;;21.25;11.35;;;2.90;99.50;;;;;;4878910;29;20648;-73
2023/02/09 09:09:26;;;;;;;20.67;12.37;;;2.90;99.60;;;;;;4877786;29;20214;-73
2023/02/09 09:11:52;;;;;;;14.85;10.40;;;2.90;99.60;;;;;;4877564;29;20415;-73
2023/02/09 09:14:18;;;;;;;18.97;10.53;;;2.90;99.70;;;;;;4862046;29;20166;-73
2023/02/09 09:16:46;;;;;;;19.63;10.87;;;3.00;99.90;;;;;;4877034;29;20450;-73
2023/02/09 09:19:14;;;;;;;16.20;10.98;;;3.00;99.90;;;;;;4878772;29;20415;-73
2023/02/09 09:21:40;;;;;;;18.00;10.90;;;3.00;99.90;;;;;;4877526;29;20179;-73
2023/02/09 09:24:06;;;;;;;19.60;11.70;;;3.00;99.80;;;;;;4877754;29;20533;-72
2023/02/09 09:26:33;;;;;;;18.17;11.43;;;3.00;99.80;;;;;;4880204;29;20496;-73
2023/02/09 09:28:59;;;;;;;17.10;9.98;;;3.10;99.90;;;;;;4896230;29;20174;-73
2023/02/09 09:31:25;;;;;;;17.40;10.95;;;3.10;99.90;;;;;;4896211;29;20225;-73
2023/02/09 09:33:53;;;;;;;20.50;10.60;;;3.10;99.90;;;;;;4880527;29;20571;-73
2023/02/09 09:36:21;;;;;;;17.35;10.48;;;3.10;99.90;;;;;;4896265;29;20448;-73
2023/02/09 09:38:50;;;;;;;17.65;9.98;;;3.10;99.90;;;;;;4880677;29;20260;-73
2023/02/09 09:41:35;;;;;;;17.17;11.00;;;3.10;99.90;;;;;;4896275;29;20177;-73
2023/02/09 09:44:15;;;;;;;18.45;10.85;;;3.10;99.90;;;;;;4880868;29;20749;-73
2023/02/09 09:46:49;;;;;;;16.02;10.45;;;3.10;99.90;;;;;;4880317;29;20220;-73
2023/02/09 09:49:23;;;;;;;17.45;9.35;;;3.10;99.90;;;;;;4880741;29;20276;-73
2023/02/09 09:51:57;;;;;;;17.98;10.93;;;3.10;99.90;;;;;;4895665;29;20181;-73
2023/02/09 09:54:30;;;;;;;16.13;10.48;;;3.20;99.90;;;;;;4895971;29;20221;-73
2023/02/09 09:56:58;;;;;;;17.67;11.60;;;3.20;99.90;;;;;;4894682;29;20674;-73
2023/02/09 09:59:29;;;;;;;15.90;10.30;;;3.20;99.90;;;;;;4877241;29;20233;-73
2023/02/09 10:02:02;;;;;;;17.35;10.98;;;3.20;99.90;;;;;;4861752;29;20221;-73
2023/02/09 10:04:28;;;;;;;16.05;10.68;;;3.20;99.90;;;;;;4876995;29;20569;-73
2023/02/09 10:07:09;;;;;;;25.08;12.23;;;3.20;99.90;;;;;;4876897;29;20218;-73
2023/02/09 10:09:45;;;;;;;17.38;11.15;;;3.20;99.90;;;;;;4861945;29;20264;-73
2023/02/09 10:12:30;;;;;;;17.92;10.38;;;3.20;99.90;;;;;;4878664;29;20629;-73
2023/02/09 10:15:14;;;;;;;18.42;10.50;;;3.20;99.90;;;;;;4877552;29;20162;-74
2023/02/09 10:17:43;;;;;;;17.73;10.40;;;3.20;99.90;;;;;;4877320;29;20170;-74
2023/02/09 10:20:09;;;;;;;18.30;11.15;;;3.30;99.80;;;;;;4854281;29;20242;-73
2023/02/09 10:22:37;;;;;;;16.65;10.63;;;3.30;99.90;;;;;;4893129;29;20173;-74
2023/02/09 10:25:34;;;;;;;16.50;11.37;;;3.30;99.90;;;;;;4877164;29;20528;-74
2023/02/09 10:28:05;;;;;;;21.25;11.80;;;3.30;99.90;;;;;;4865682;29;20441;-74
2023/02/09 10:30:31;;;;;;;21.00;11.05;;;3.30;99.80;;;;;;4865828;29;20663;-73
2023/02/09 10:33:01;;;;;;;17.90;10.93;;;3.30;99.70;;;;;;4881080;29;20300;-74
2023/02/09 10:35:34;;;;;;;19.02;11.02;;;3.30;99.70;;;;;;4881151;29;20218;-74
2023/02/09 10:38:03;;;;;;;17.52;10.65;;;3.30;99.70;;;;;;4882338;29;20541;-74
2023/02/09 10:40:31;;;;;;;15.37;9.70;;;3.30;99.70;;;;;;4850544;29;20206;-73
2023/02/09 10:43:05;;;;;;;19.55;11.85;;;3.30;99.70;;;;;;4881552;29;20426;-74
2023/02/09 10:45:43;;;;;;;16.63;10.77;;;3.30;99.80;;;;;;4881782;29;20217;-73
2023/02/09 10:48:11;;;;;;;16.83;10.63;;;3.30;99.80;;;;;;4881004;29;20644;-73
2023/02/09 10:51:27;;;;;;;19.87;12.10;;;3.40;99.80;;;;;;4880911;29;20198;-73
2023/02/09 10:54:18;;;;;;;17.95;11.00;;;3.40;99.80;;;;;;4865344;29;20206;-74
2023/02/09 10:56:48;;;;;;;15.50;9.85;;;3.40;99.80;;;;;;4880606;29;20206;-74
2023/02/09 10:59:24;;;;;;;17.65;10.45;;;3.40;99.80;;;;;;4884839;29;20189;-74
2023/02/09 11:01:59;;;;;;;18.40;10.75;;;3.40;99.80;;;;;;4883850;29;20242;-73
2023/02/09 11:04:35;;;;;;;17.52;11.30;;;3.40;99.80;;;;;;4899498;29;20546;-73
2023/02/09 11:07:13;;;;;;;18.33;12.23;;;3.40;99.80;;;;;;4899149;29;20232;-74
2023/02/09 11:09:45;;;;;;;17.48;10.63;;;3.50;99.80;;;;;;4883366;29;20198;-73
2023/02/09 11:12:14;;;;;;;18.42;11.35;;;3.50;99.70;;;;;;4899262;29;20168;-73
2023/02/09 11:14:41;;;;;;;17.65;11.00;;;3.50;99.70;;;;;;4899232;29;20166;-74
2023/02/09 11:17:35;;;;;;;18.17;10.63;;;3.50;99.70;;;;;;4899179;29;20257;-73
2023/02/09 11:20:17;;;;;;;17.75;11.05;;;3.50;99.60;;;;;;4899188;29;20221;-74
2023/02/09 11:22:54;;;;;;;19.85;12.52;;;3.60;99.90;;;;;;4900288;29;20181;-74
2023/02/09 11:25:26;;;;;;;18.90;10.95;;;3.60;99.70;;;;;;4898918;29;20202;-73
2023/02/09 11:28:19;;;;;;;16.95;11.70;;;3.60;99.70;;;;;;4883419;29;20170;-74
2023/02/09 11:30:57;;;;;;;19.30;11.25;;;3.60;99.70;;;;;;4875518;29;20663;-73
2023/02/09 11:33:51;;;;;;;17.60;11.50;;;3.60;99.80;;;;;;4881390;29;20245;-74
2023/02/09 11:36:40;;;;;;;16.83;10.48;;;3.60;99.70;;;;;;4880180;29;20727;-73
2023/02/09 11:39:11;;;;;;;19.15;11.25;;;3.60;99.70;;;;;;4864016;29;20210;-74
2023/02/09 11:44:51;;;;;;;13.98;9.65;;;3.60;99.60;;;;;;4881316;29;20185;-73
2023/02/09 11:47:27;;;;;;;16.90;9.95;;;3.70;99.60;;;;;;4880759;29;20749;-73
2023/02/09 11:49:55;;;;;;;15.27;10.52;;;3.70;99.60;;;;;;4864678;29;20276;-73
2023/02/09 11:52:37;;;;;;;16.38;10.10;;;3.70;99.60;;;;;;4880950;29;20193;-74
2023/02/09 11:55:23;;;;;;;15.45;9.90;;;3.70;99.60;;;;;;4879864;29;20734;-73
2023/02/09 11:57:58;;;;;;;16.33;10.68;;;3.80;99.60;;;;;;4863953;29;20198;-73
2023/02/09 12:00:29;;;;;;;16.33;10.48;;;3.80;99.50;;;;;;4864328;29;20778;-73
2023/02/09 12:03:12;;;;;;;17.45;10.52;;;3.80;99.60;;;;;;4880117;29;20204;-73
2023/02/09 12:05:41;;;;;;;17.30;11.15;;;3.80;99.60;;;;;;4879439;29;20270;-73
2023/02/09 12:08:22;;;;;;;18.80;10.90;;;3.80;99.60;;;;;;4879376;29;20186;-74
2023/02/09 12:10:55;;;;;;;19.90;12.02;;;3.80;99.50;;;;;;4880770;29;20169;-74
2023/02/09 12:13:32;;;;;;;16.98;11.23;;;3.80;99.40;;;;;;4880521;29;20250;-72
2023/02/09 12:16:10;;;;;;;19.27;10.68;;;3.80;99.40;;;;;;4878903;29;20219;-73
2023/02/09 12:18:39;;;;;;;17.15;10.75;;;3.90;99.50;;;;;;4862693;29;20178;-74
2023/02/09 12:21:06;;;;;;;16.83;10.80;;;3.90;99.50;;;;;;4877589;29;20644;-73
2023/02/09 12:23:36;;;;;;;18.45;10.98;;;3.90;99.50;;;;;;4877962;29;20181;-73
2023/02/09 12:26:16;;;;;;;19.60;11.13;;;3.90;99.60;;;;;;4878659;29;20218;-73
2023/02/09 12:29:17;;;;;;;17.27;10.55;;;3.90;99.50;;;;;;4886843;29;20212;-74
2023/02/09 12:32:07;;;;;;;16.13;9.98;;;3.90;99.40;;;;;;4881063;29;20663;-73
2023/02/09 12:34:40;;;;;;;21.88;10.90;;;3.90;99.40;;;;;;4896619;29;20556;-73
2023/02/09 12:37:12;;;;;;;15.60;10.13;;;4.00;99.40;;;;;;4897174;29;20583;-73
2023/02/09 12:40:21;;;;;;;16.00;10.90;;;4.00;99.40;;;;;;4896341;29;20197;-73
2023/02/09 12:42:53;;;;;;;17.15;10.57;;;4.00;99.40;;;;;;4876110;29;20234;-73
2023/02/09 12:45:32;;;;;;;17.98;11.27;;;4.00;99.30;;;;;;4830102;29;20685;-74
2023/02/09 12:48:07;;;;;;;15.23;10.63;;;4.00;99.30;;;;;;4845091;29;20347;-73
2023/02/09 12:50:42;;;;;;;17.80;9.70;;;4.00;99.40;;;;;;4875998;29;20684;-74
2023/02/09 12:53:32;;;;;;;15.68;10.82;;;4.10;99.40;;;;;;4875065;29;20209;-73
2023/02/09 12:56:03;;;;;;;18.58;10.60;;;4.10;99.30;;;;;;4860490;29;20213;-73
2023/02/09 12:58:44;;;;;;;14.93;10.65;;;4.10;99.30;;;;;;4859347;29;20370;-75
2023/02/09 13:01:12;;;;;;;19.95;10.35;;;4.10;99.30;;;;;;4860112;29;20222;-74
2023/02/09 13:04:01;;;;;;;16.27;10.73;;;4.10;99.30;;;;;;4860263;29;20194;-74
2023/02/09 13:06:45;;;;;;;19.15;10.60;;;4.10;99.20;;;;;;4860001;29;20822;-73
2023/02/09 13:09:24;;;;;;;22.55;11.77;;;4.20;99.30;;;;;;4860510;29;20366;-74
2023/02/09 13:12:15;;;;;;;16.70;10.07;;;4.20;99.30;;;;;;4955398;23;20260;-74
2023/02/09 13:14:48;;;;;;;16.50;10.55;;;4.20;99.30;;;;;;4878081;29;20216;-73
2023/02/09 13:17:38;;;;;;;14.93;9.57;;;4.20;99.40;;;;;;4895578;29;20722;-74
2023/02/09 13:20:41;;;;;;;16.15;9.80;;;4.20;99.40;;;;;;4895775;29;20209;-74
2023/02/09 13:23:31;;;;;;;13.85;9.70;;;4.20;99.40;;;;;;4909107;29;20674;-74
2023/02/09 13:26:19;;;;;;;13.90;9.27;;;4.20;99.40;;;;;;4914194;29;20287;-74